MT WASHINGTON (MTW)

Elevation: 920' · LOS ANGELES R basin · Operator: Los Angeles County Fire Dept

Query executed Thursday at 18:34:51   clock

Provisional data, subject to change.
Select a sensor type for a plot of data.

Earlier

Date   /   Time   RAIN     TEMP     REL HUM     BAR PRE     FUEL MS     FUEL TP     WIND SP     WIND DR     PEAK WS     PEAK WD     SOLAR R     BAT VOL    
(PDT)INCHES   DEG F   %   INCHES   %   DEG F   MPH   DEG   MPH   DEG   W/M^2   VOLTS  
09/17/2014 19:00 5.09 82 32 -- 5 80 -- -- -- -- 0.00 12.5
09/17/2014 20:00 5.09 80 40 -- 5 79 -- -- -- -- 0.00 12.5
09/17/2014 21:00 5.09 74 55 -- 6 74 -- -- -- -- 0.00 12.5
09/17/2014 22:00 5.09 72 57 -- 7 72 -- -- -- -- 0.00 12.5
09/17/2014 23:00 5.09 70 60 -- 7 70 -- -- -- -- 0.00 12.4
09/18/2014 00:00 5.09 69 63 -- 7 69 -- -- -- -- 0.00 12.4
09/18/2014 01:00 5.09 67 67 -- 8 67 -- -- -- -- 0.00 12.4
09/18/2014 02:00 5.09 66 70 -- 8 66 -- -- -- -- 0.00 12.4
09/18/2014 03:00 5.09 66 72 -- 9 65 -- -- -- -- 0.00 12.3
09/18/2014 04:00 5.09 67 71 -- 9 65 -- -- -- -- 0.00 12.3
09/18/2014 05:00 5.09 64 76 -- 10 64 -- -- -- -- 0.00 12.3
09/18/2014 06:00 5.09 65 76 -- 11 64 -- -- -- -- 3.00 12.3
09/18/2014 07:00 5.09 67 73 -- 11 67 -- -- -- -- 113.00 13.5
09/18/2014 08:00 5.09 71 68 -- 11 71 -- -- -- -- 245.00 13.5
09/18/2014 09:00 5.09 76 57 -- 10 79 -- -- -- -- 493.00 13.5
09/18/2014 10:00 5.09 79 53 -- 9 87 -- -- -- -- 642.00 13.4
09/18/2014 11:00 5.09 81 45 -- 8 93 -- -- -- -- 745.00 13.4
09/18/2014 12:00 5.09 82 44 -- 7 100 -- -- -- -- 791.00 13.4
09/18/2014 13:00 5.09 83 45 -- 7 98 -- -- -- -- 774.00 13.4
09/18/2014 14:00 5.09 82 49 -- 7 96 -- -- -- -- 699.00 13.4
09/18/2014 15:00 5.09 80 53 -- 7 91 -- -- -- -- 422.00 13.3
09/18/2014 16:00 5.09 78 57 -- 7 79 -- -- -- -- 300.00 13.3
09/18/2014 17:00 5.09 72 71 -- 9 73 -- -- -- -- 94.00 12.6
09/18/2014 18:00 -- -- -- -- -- -- -- -- -- -- -- --

Later | Latest

Warning! This data is preliminary and subject to revision.

Download Data Now Download Data Now | Show MTW Map | 24 Hours MTW Data | Plot all MTW Sensors | Daily MTW Data | MTW Info